Time;durP1;ratioP1;P1;durP2;ratioP2;P2;SDS_P1;SDS_P2;PMS_P1;PMS_P2;Temp;Humidity;BMP_temperature;BMP_pressure;BME280_temperature;BME280_humidity;BME280_pressure;Samples;Min_cycle;Max_cycle;Signal;HPM_P1;HPM_P2
2022/04/20 00:02:07;;;;;;;2.33;0.80;;;22.00;36.00;;;;;;5135337;27;20023;-61
2022/04/20 00:04:33;;;;;;;1.42;0.60;;;21.90;35.90;;;;;;5136753;27;20022;-61
2022/04/20 00:07:00;;;;;;;1.30;0.70;;;21.90;35.90;;;;;;5135083;27;20091;-61
2022/04/20 00:09:26;;;;;;;1.08;0.80;;;21.90;35.90;;;;;;5134949;27;20020;-61
2022/04/20 00:11:51;;;;;;;1.98;0.68;;;21.90;35.90;;;;;;5136163;27;20027;-61
2022/04/20 00:14:17;;;;;;;1.52;0.70;;;21.90;35.90;;;;;;5136117;27;20484;-61
2022/04/20 00:16:43;;;;;;;0.70;0.50;;;21.90;36.00;;;;;;5136098;27;20075;-61
2022/04/20 00:19:08;;;;;;;0.65;0.57;;;21.90;36.00;;;;;;5135744;27;20095;-61
2022/04/20 00:21:34;;;;;;;1.42;0.60;;;21.90;36.00;;;;;;5135717;27;20557;-61
2022/04/20 00:24:01;;;;;;;0.93;0.82;;;21.90;36.00;;;;;;5136459;27;20011;-61
2022/04/20 00:26:27;;;;;;;0.80;0.68;;;21.90;36.00;;;;;;5134873;27;20086;-61
2022/04/20 00:28:53;;;;;;;0.60;0.60;;;21.90;36.00;;;;;;5135024;27;20019;-61
2022/04/20 00:31:20;;;;;;;1.25;0.70;;;21.90;36.10;;;;;;5136817;27;20035;-61
2022/04/20 00:33:46;;;;;;;0.75;0.70;;;21.90;36.10;;;;;;5136262;27;20027;-62
2022/04/20 00:36:12;;;;;;;0.63;0.63;;;21.90;36.10;;;;;;5134670;27;20031;-61
2022/04/20 00:38:38;;;;;;;0.60;0.60;;;21.90;36.10;;;;;;5135672;27;20026;-61
2022/04/20 00:41:03;;;;;;;1.13;0.60;;;21.80;36.10;;;;;;5135463;27;20019;-61
2022/04/20 00:43:29;;;;;;;0.52;0.50;;;21.90;36.10;;;;;;5134243;27;20012;-60
2022/04/20 00:45:55;;;;;;;0.60;0.60;;;21.90;36.10;;;;;;5134567;27;20393;-61
2022/04/20 00:48:21;;;;;;;1.75;0.73;;;21.90;36.10;;;;;;5136618;27;20060;-61
2022/04/20 00:50:47;;;;;;;0.77;0.73;;;21.90;36.10;;;;;;5154007;27;20011;-61
2022/04/20 00:53:12;;;;;;;1.15;0.70;;;21.90;36.00;;;;;;5135450;27;20043;-61
2022/04/20 00:55:40;;;;;;;0.90;0.70;;;21.80;36.10;;;;;;5135939;27;20019;-61
2022/04/20 00:58:05;;;;;;;0.77;0.60;;;21.90;36.10;;;;;;5136406;27;20011;-61
2022/04/20 01:00:31;;;;;;;1.67;0.60;;;21.80;36.20;;;;;;5134504;27;20011;-61
2022/04/20 01:02:57;;;;;;;0.90;0.70;;;21.80;36.10;;;;;;5135487;27;20020;-61
2022/04/20 01:05:23;;;;;;;1.67;0.75;;;21.80;36.10;;;;;;5135321;27;20024;-61
2022/04/20 01:07:49;;;;;;;1.17;0.80;;;21.80;36.20;;;;;;5134911;27;20020;-60
2022/04/20 01:10:18;;;;;;;0.75;0.60;;;21.80;36.10;;;;;;5133656;27;20016;-60
2022/04/20 01:12:44;;;;;;;0.63;0.60;;;21.80;36.20;;;;;;5134297;27;20046;-61
2022/04/20 01:15:12;;;;;;;0.70;0.60;;;21.80;36.20;;;;;;5143557;27;20022;-61
2022/04/20 01:17:38;;;;;;;1.35;0.80;;;21.80;36.80;;;;;;5144412;27;20023;-61
2022/04/20 01:20:10;;;;;;;1.15;0.77;;;21.80;36.20;;;;;;5121144;27;20114;-61
2022/04/20 01:22:37;;;;;;;0.55;0.50;;;21.70;36.10;;;;;;5119398;27;20046;-61
2022/04/20 01:25:04;;;;;;;1.45;0.50;;;21.70;36.20;;;;;;5135913;27;20015;-61
2022/04/20 01:27:30;;;;;;;1.25;0.57;;;21.70;36.10;;;;;;5135084;27;20046;-61
2022/04/20 01:29:56;;;;;;;1.58;0.70;;;21.70;36.10;;;;;;5135333;27;20014;-61
2022/04/20 01:32:23;;;;;;;0.50;0.50;;;21.70;36.10;;;;;;5133468;27;20019;-61
2022/04/20 01:34:49;;;;;;;0.73;0.70;;;21.70;36.10;;;;;;5115863;27;20011;-62
2022/04/20 01:37:15;;;;;;;0.70;0.60;;;21.70;36.10;;;;;;5133105;27;20023;-61
2022/04/20 01:39:41;;;;;;;0.90;0.57;;;21.70;36.10;;;;;;5134502;27;20015;-61
2022/04/20 01:42:08;;;;;;;1.00;0.70;;;21.70;36.20;;;;;;5134192;27;20027;-61
2022/04/20 01:44:33;;;;;;;1.08;0.60;;;21.70;36.20;;;;;;5134542;27;20018;-61
2022/04/20 01:47:00;;;;;;;1.00;0.70;;;21.70;36.10;;;;;;5134278;27;20008;-61
2022/04/20 01:49:26;;;;;;;0.80;0.50;;;21.70;36.10;;;;;;5133134;27;20102;-61
2022/04/20 01:51:54;;;;;;;0.85;0.70;;;21.70;36.10;;;;;;5133010;27;20032;-61
2022/04/20 01:54:19;;;;;;;1.08;0.70;;;21.70;36.10;;;;;;5133015;27;20098;-60
2022/04/20 01:56:46;;;;;;;0.65;0.55;;;21.70;36.10;;;;;;5134613;27;20043;-61
2022/04/20 01:59:12;;;;;;;1.10;0.77;;;21.70;36.10;;;;;;5133193;27;20019;-61
2022/04/20 02:04:23;;;;;;;0.73;0.52;;;21.60;36.00;;;;;;5134768;27;20026;-60
2022/04/20 02:06:50;;;;;;;3.42;0.70;;;21.70;36.10;;;;;;5115711;27;20492;-61
2022/04/20 02:09:15;;;;;;;1.00;0.52;;;21.60;36.00;;;;;;5134198;27;20019;-61
2022/04/20 02:11:42;;;;;;;1.13;0.57;;;21.60;36.00;;;;;;5139900;28;20018;-61
2022/04/20 02:14:07;;;;;;;1.33;0.80;;;21.60;36.00;;;;;;5155266;27;20020;-61
2022/04/20 02:16:33;;;;;;;0.50;0.50;;;21.60;36.00;;;;;;5119528;28;20030;-61
2022/04/20 02:18:59;;;;;;;0.80;0.70;;;21.60;36.10;;;;;;5136547;28;20027;-60
2022/04/20 02:21:25;;;;;;;0.90;0.70;;;21.60;36.10;;;;;;5134727;28;20032;-61
2022/04/20 02:23:51;;;;;;;0.50;0.50;;;21.60;36.10;;;;;;5134253;28;20026;-60
2022/04/20 02:26:16;;;;;;;0.98;0.70;;;21.60;36.10;;;;;;5133947;28;20022;-61
2022/04/20 02:28:42;;;;;;;0.63;0.50;;;21.60;36.00;;;;;;5134185;28;20017;-61
2022/04/20 02:31:09;;;;;;;0.75;0.60;;;21.60;36.10;;;;;;5134246;27;20023;-61
2022/04/20 02:33:35;;;;;;;1.33;0.70;;;21.60;36.10;;;;;;5143828;27;20469;-61
2022/04/20 02:36:02;;;;;;;0.60;0.57;;;21.50;36.10;;;;;;5142688;27;20031;-60
2022/04/20 02:38:29;;;;;;;0.95;0.55;;;21.50;36.10;;;;;;5139755;27;20062;-61
2022/04/20 02:40:55;;;;;;;0.73;0.70;;;21.50;36.10;;;;;;5138354;27;20038;-61
2022/04/20 02:43:21;;;;;;;0.60;0.60;;;21.50;36.00;;;;;;5139005;27;20075;-61
2022/04/20 02:45:47;;;;;;;0.93;0.80;;;21.50;36.00;;;;;;5142061;27;20019;-61
2022/04/20 02:48:13;;;;;;;0.52;0.52;;;21.50;36.10;;;;;;5140338;27;20015;-61
2022/04/20 02:50:39;;;;;;;0.90;0.77;;;21.50;35.90;;;;;;5139008;27;20015;-61
2022/04/20 02:53:05;;;;;;;0.73;0.63;;;21.50;35.90;;;;;;5139759;27;20018;-61
2022/04/20 02:55:31;;;;;;;1.50;0.68;;;21.50;35.90;;;;;;5139735;27;20072;-61
2022/04/20 02:57:57;;;;;;;2.45;0.90;;;21.50;35.90;;;;;;5120895;27;20020;-61
2022/04/20 03:00:23;;;;;;;0.90;0.70;;;21.50;36.00;;;;;;5139743;27;20034;-61
2022/04/20 03:02:50;;;;;;;0.43;0.43;;;21.50;36.00;;;;;;5139496;27;20031;-61
2022/04/20 03:05:15;;;;;;;1.10;0.80;;;21.50;36.10;;;;;;5138533;27;20043;-60
2022/04/20 03:07:42;;;;;;;0.77;0.60;;;21.50;36.60;;;;;;5119951;27;20076;-61
2022/04/20 03:10:09;;;;;;;2.28;0.75;;;21.50;36.10;;;;;;5138376;27;20019;-61
2022/04/20 03:12:35;;;;;;;0.57;0.57;;;21.50;36.00;;;;;;5139019;27;20019;-61
2022/04/20 03:15:01;;;;;;;1.10;0.70;;;21.40;36.00;;;;;;5121024;27;20027;-60
2022/04/20 03:17:27;;;;;;;0.47;0.47;;;21.40;36.00;;;;;;5139679;27;20011;-61
2022/04/20 03:19:52;;;;;;;0.80;0.60;;;21.50;36.10;;;;;;5139596;27;20043;-60
2022/04/20 03:22:18;;;;;;;0.90;0.65;;;21.40;35.90;;;;;;5154274;27;20046;-61
2022/04/20 03:24:44;;;;;;;1.38;0.70;;;21.40;35.90;;;;;;5135888;27;20019;-61
2022/04/20 03:27:13;;;;;;;0.75;0.50;;;21.40;36.00;;;;;;5137215;27;20084;-61
2022/04/20 03:29:41;;;;;;;0.77;0.77;;;21.40;36.20;;;;;;5137128;27;20011;-61
2022/04/20 03:32:12;;;;;;;2.05;0.80;;;21.40;36.10;;;;;;5136642;27;20015;-61
2022/04/20 03:34:38;;;;;;;1.02;0.52;;;21.40;36.10;;;;;;5142007;27;20049;-61
2022/04/20 03:37:05;;;;;;;1.23;0.60;;;21.40;36.10;;;;;;5140377;27;20019;-60
2022/04/20 03:39:32;;;;;;;0.60;0.60;;;21.40;36.10;;;;;;5140922;27;20034;-61
2022/04/20 03:41:58;;;;;;;0.60;0.60;;;21.40;36.10;;;;;;5138992;27;20015;-61
2022/04/20 03:44:25;;;;;;;1.20;0.60;;;21.30;36.00;;;;;;5135843;27;20027;-61
2022/04/20 03:46:51;;;;;;;0.65;0.55;;;21.30;36.00;;;;;;5137451;27;20015;-61
2022/04/20 03:49:18;;;;;;;0.98;0.70;;;21.40;36.10;;;;;;5137012;27;20012;-61
2022/04/20 03:51:45;;;;;;;0.75;0.65;;;21.30;36.00;;;;;;5135622;27;20031;-61
2022/04/20 03:54:11;;;;;;;0.57;0.57;;;21.30;36.00;;;;;;5136802;27;20004;-61
2022/04/20 03:59:22;;;;;;;0.82;0.60;;;21.30;36.10;;;;;;5136610;27;20088;-61
2022/04/20 04:01:49;;;;;;;0.77;0.60;;;21.30;36.00;;;;;;5152303;27;20045;-61
2022/04/20 04:04:15;;;;;;;0.80;0.50;;;21.30;36.00;;;;;;5136353;27;20022;-61
2022/04/20 04:06:41;;;;;;;0.98;0.57;;;21.30;36.00;;;;;;5136383;27;20020;-61
2022/04/20 04:09:07;;;;;;;1.30;0.70;;;21.30;36.00;;;;;;5135341;27;20064;-60
2022/04/20 04:11:33;;;;;;;0.60;0.60;;;21.30;36.00;;;;;;5135075;27;20702;-61
2022/04/20 04:13:59;;;;;;;1.20;0.70;;;21.30;36.00;;;;;;5134621;27;20111;-61
2022/04/20 04:16:25;;;;;;;0.73;0.47;;;21.30;36.00;;;;;;5136161;27;20015;-61
2022/04/20 04:18:51;;;;;;;1.55;0.77;;;21.30;36.00;;;;;;5136087;27;20023;-61
2022/04/20 04:21:17;;;;;;;1.80;0.75;;;21.30;36.00;;;;;;5134621;27;20528;-61
2022/04/20 04:23:43;;;;;;;2.15;0.65;;;21.30;36.00;;;;;;5118188;27;20481;-61
2022/04/20 04:26:09;;;;;;;0.70;0.70;;;21.30;36.00;;;;;;5134785;27;20469;-61
2022/04/20 04:28:35;;;;;;;0.93;0.80;;;21.30;36.00;;;;;;5134442;27;20011;-61
2022/04/20 04:31:01;;;;;;;2.85;0.88;;;21.30;35.90;;;;;;5143262;27;20574;-61
2022/04/20 04:33:27;;;;;;;1.45;0.70;;;21.30;35.90;;;;;;5143013;27;20082;-60
2022/04/20 04:35:53;;;;;;;0.88;0.65;;;21.30;35.90;;;;;;5135968;27;20043;-61
2022/04/20 04:38:19;;;;;;;1.40;0.80;;;21.20;35.90;;;;;;5117221;27;20462;-61
2022/04/20 04:40:45;;;;;;;3.42;1.02;;;21.20;36.00;;;;;;5134735;27;20031;-61
2022/04/20 04:43:11;;;;;;;0.98;0.60;;;21.20;35.90;;;;;;5134511;27;20076;-61
2022/04/20 04:51:09;;;;;;;0.80;0.60;;;21.20;35.90;;;;;;5138029;27;20447;-61
2022/04/20 04:53:35;;;;;;;1.08;0.63;;;21.20;36.10;;;;;;5136831;27;20071;-61
2022/04/20 04:56:00;;;;;;;1.15;0.77;;;21.20;36.00;;;;;;5134248;27;20102;-61
2022/04/20 04:58:26;;;;;;;1.10;0.70;;;21.20;36.00;;;;;;5133932;27;20503;-62
2022/04/20 05:00:53;;;;;;;0.73;0.60;;;21.20;35.90;;;;;;5116892;27;20023;-61
2022/04/20 05:03:19;;;;;;;1.20;0.80;;;21.20;35.90;;;;;;5135367;27;20053;-61
2022/04/20 05:05:46;;;;;;;0.80;0.70;;;21.20;35.90;;;;;;5135509;27;20015;-60
2022/04/20 05:08:11;;;;;;;1.83;0.80;;;21.20;35.90;;;;;;5151262;27;20385;-61
2022/04/20 05:10:37;;;;;;;1.45;0.85;;;21.20;35.90;;;;;;5134975;27;20465;-62
2022/04/20 05:13:04;;;;;;;1.00;0.70;;;21.20;35.90;;;;;;5150934;27;20031;-61
2022/04/20 05:15:29;;;;;;;0.77;0.65;;;21.20;35.90;;;;;;5135176;27;20019;-61
2022/04/20 05:17:55;;;;;;;0.82;0.70;;;21.20;36.00;;;;;;5135339;27;20016;-61
2022/04/20 05:20:23;;;;;;;0.60;0.50;;;21.20;36.00;;;;;;5150617;27;20023;-61
2022/04/20 05:22:49;;;;;;;0.60;0.60;;;21.20;36.10;;;;;;5134452;27;20063;-61
2022/04/20 05:25:17;;;;;;;0.63;0.60;;;21.20;36.10;;;;;;5134543;27;20095;-61
2022/04/20 05:27:44;;;;;;;1.48;0.82;;;21.10;36.00;;;;;;5134969;27;20026;-61
2022/04/20 05:30:13;;;;;;;0.68;0.60;;;21.20;36.10;;;;;;5133477;27;20548;-61
2022/04/20 05:32:39;;;;;;;0.77;0.68;;;21.10;36.00;;;;;;5135245;27;20035;-61
2022/04/20 05:35:05;;;;;;;0.82;0.80;;;21.10;36.00;;;;;;5150690;27;20488;-61
2022/04/20 05:42:59;;;;;;;1.45;0.70;;;21.10;35.90;;;;;;5134913;27;20042;-61
2022/04/20 05:45:25;;;;;;;1.50;0.85;;;21.20;35.90;;;;;;5134235;27;20019;-61
2022/04/20 05:47:50;;;;;;;2.03;0.73;;;21.30;35.80;;;;;;5134205;27;20090;-61
2022/04/20 05:50:16;;;;;;;1.63;0.77;;;21.40;35.50;;;;;;5149953;27;20043;-61
2022/04/20 05:52:42;;;;;;;1.10;0.80;;;21.50;35.20;;;;;;5133662;27;20019;-61
2022/04/20 05:55:09;;;;;;;0.95;0.70;;;21.50;35.10;;;;;;5115221;27;20037;-61
2022/04/20 05:57:34;;;;;;;1.45;0.93;;;21.60;35.10;;;;;;5133639;27;20015;-61
2022/04/20 06:00:00;;;;;;;1.15;0.82;;;21.60;35.00;;;;;;5131841;27;20027;-61
2022/04/20 06:02:26;;;;;;;1.35;0.90;;;21.60;35.00;;;;;;5131809;27;20106;-61
2022/04/20 06:04:52;;;;;;;0.98;0.70;;;21.70;35.10;;;;;;5133116;27;20110;-61
2022/04/20 06:07:18;;;;;;;2.25;0.80;;;21.70;35.00;;;;;;5131577;27;20008;-61
2022/04/20 06:09:44;;;;;;;1.02;0.88;;;21.70;34.90;;;;;;5149272;27;20017;-63
2022/04/20 06:12:10;;;;;;;2.00;0.80;;;21.70;34.80;;;;;;5134021;27;20023;-59
2022/04/20 06:14:36;;;;;;;1.02;0.68;;;21.70;34.90;;;;;;5132452;28;20082;-62
2022/04/20 06:17:04;;;;;;;0.80;0.70;;;21.70;34.90;;;;;;5133441;28;20520;-63
2022/04/20 06:19:29;;;;;;;1.05;0.80;;;21.80;34.80;;;;;;5132755;27;20125;-62
2022/04/20 06:21:55;;;;;;;3.17;1.27;;;21.80;34.80;;;;;;5132121;27;20058;-61
2022/04/20 06:24:22;;;;;;;9.20;2.60;;;21.70;34.00;;;;;;5132847;28;20027;-63
2022/04/20 06:26:48;;;;;;;8.15;2.30;;;21.40;34.00;;;;;;5131155;28;20015;-64
2022/04/20 06:29:14;;;;;;;9.15;2.92;;;21.40;33.80;;;;;;5132250;28;20061;-62
2022/04/20 06:31:42;;;;;;;10.13;2.95;;;21.30;32.50;;;;;;5132870;27;20098;-61
2022/04/20 06:34:08;;;;;;;8.18;3.08;;;21.30;33.00;;;;;;5132698;27;20019;-61
2022/04/20 06:36:34;;;;;;;9.13;3.00;;;21.20;32.60;;;;;;5134966;28;20051;-62
2022/04/20 06:39:01;;;;;;;9.05;3.10;;;21.10;32.60;;;;;;5115786;28;20032;-61
2022/04/20 06:41:27;;;;;;;6.93;2.92;;;20.80;32.40;;;;;;5132271;28;20019;-61
2022/04/20 06:43:52;;;;;;;6.55;3.67;;;20.60;32.50;;;;;;5133153;27;20393;-62
2022/04/20 06:46:20;;;;;;;8.57;3.22;;;20.70;32.90;;;;;;5131372;28;20026;-61
2022/04/20 06:48:51;;;;;;;9.70;3.30;;;20.70;32.50;;;;;;5132803;28;20008;-62
2022/04/20 06:51:19;;;;;;;9.57;3.28;;;20.00;32.90;;;;;;5130939;28;20414;-61
2022/04/20 06:59:14;;;;;;;10.05;3.42;;;20.40;33.80;;;;;;5132414;28;20028;-65
2022/04/20 07:01:40;;;;;;;9.63;3.28;;;20.50;33.20;;;;;;5132059;28;20206;-61
2022/04/20 07:04:07;;;;;;;7.72;3.10;;;20.40;33.10;;;;;;5131543;27;20023;-61
2022/04/20 07:06:32;;;;;;;7.53;2.90;;;20.30;33.20;;;;;;5131414;28;20015;-61
2022/04/20 07:08:58;;;;;;;10.98;3.33;;;20.10;33.30;;;;;;5131870;27;20011;-60
2022/04/20 07:11:28;;;;;;;13.13;3.50;;;20.10;33.40;;;;;;5132425;27;20049;-60
2022/04/20 07:13:55;;;;;;;21.25;3.83;;;19.90;33.70;;;;;;5114052;28;20020;-59
2022/04/20 07:16:22;;;;;;;6.93;3.10;;;19.70;33.90;;;;;;5131987;27;20023;-62
2022/04/20 07:18:48;;;;;;;8.02;3.47;;;20.00;34.20;;;;;;5133824;27;20007;-59
2022/04/20 07:21:16;;;;;;;9.68;3.25;;;19.70;34.10;;;;;;5135186;27;20137;-58
2022/04/20 07:23:42;;;;;;;9.90;3.22;;;19.40;34.10;;;;;;5136096;27;20108;-58
2022/04/20 07:26:08;;;;;;;5.30;3.10;;;19.00;34.10;;;;;;5135462;27;20022;-59
2022/04/20 07:28:34;;;;;;;7.72;3.42;;;18.50;35.00;;;;;;5135782;27;20015;-58
2022/04/20 07:31:02;;;;;;;6.32;3.40;;;18.50;35.20;;;;;;5135635;27;20026;-59
2022/04/20 07:33:28;;;;;;;6.50;3.47;;;18.30;35.00;;;;;;5135803;27;20031;-59
2022/04/20 07:35:54;;;;;;;7.20;3.25;;;18.20;35.10;;;;;;5134760;27;20493;-59
2022/04/20 07:38:19;;;;;;;8.98;3.05;;;18.30;35.40;;;;;;5135347;27;20385;-59
2022/04/20 07:40:45;;;;;;;7.30;3.83;;;18.50;35.40;;;;;;5134503;27;20022;-60
2022/04/20 07:43:11;;;;;;;7.18;3.25;;;18.30;35.50;;;;;;5135518;27;20030;-59
2022/04/20 07:45:36;;;;;;;14.50;3.28;;;18.40;35.50;;;;;;5134568;27;20449;-58
2022/04/20 07:48:02;;;;;;;7.80;3.13;;;18.60;35.30;;;;;;5136427;27;20019;-58
2022/04/20 07:50:28;;;;;;;6.90;3.65;;;18.60;35.20;;;;;;5136120;27;20374;-59
2022/04/20 07:52:56;;;;;;;7.30;3.67;;;18.20;35.30;;;;;;5135140;27;20482;-56
2022/04/20 07:55:22;;;;;;;8.20;3.47;;;18.10;35.80;;;;;;5135536;27;20104;-60
2022/04/20 07:57:49;;;;;;;8.18;3.45;;;18.40;35.60;;;;;;5135324;27;20016;-58
2022/04/20 08:00:16;;;;;;;8.63;2.90;;;18.50;35.30;;;;;;5135535;27;20021;-60
2022/04/20 08:02:43;;;;;;;6.93;3.13;;;18.70;34.80;;;;;;5134677;27;20464;-59
2022/04/20 08:05:09;;;;;;;9.35;3.67;;;18.80;34.80;;;;;;5134973;27;20015;-60
2022/04/20 08:07:35;;;;;;;7.63;3.00;;;19.10;34.40;;;;;;5134116;27;20003;-60
2022/04/20 08:10:06;;;;;;;9.52;3.40;;;18.90;34.30;;;;;;5135608;27;20003;-60
2022/04/20 08:12:44;;;;;;;6.10;2.50;;;19.10;34.00;;;;;;5135710;27;20579;-60
2022/04/20 08:15:11;;;;;;;15.27;2.95;;;19.40;33.40;;;;;;5133622;27;20027;-58
2022/04/20 08:17:37;;;;;;;10.88;2.65;;;19.60;33.20;;;;;;5134469;27;20445;-59
2022/04/20 08:20:07;;;;;;;11.55;3.35;;;19.70;33.20;;;;;;5133598;27;20105;-59
2022/04/20 08:22:32;;;;;;;10.68;3.30;;;19.90;34.20;;;;;;5135168;27;20465;-60
2022/04/20 08:25:02;;;;;;;13.23;3.35;;;20.00;35.10;;;;;;5135097;27;20103;-60
2022/04/20 08:27:28;;;;;;;9.98;2.88;;;19.80;35.20;;;;;;5135605;27;21030;-60
2022/04/20 08:29:54;;;;;;;6.43;2.95;;;19.60;35.30;;;;;;5133931;27;20021;-60
2022/04/20 08:32:19;;;;;;;8.10;3.38;;;19.70;35.50;;;;;;5152466;27;20371;-59
2022/04/20 08:34:45;;;;;;;7.70;2.92;;;20.00;35.40;;;;;;5135164;27;20011;-59
2022/04/20 08:37:11;;;;;;;5.20;2.80;;;20.10;34.80;;;;;;5135699;27;20481;-59
2022/04/20 08:39:39;;;;;;;10.23;2.72;;;20.10;34.90;;;;;;5150526;27;20015;-54
2022/04/20 08:42:06;;;;;;;7.53;2.63;;;20.30;34.40;;;;;;5134634;27;20023;-58
2022/04/20 08:44:31;;;;;;;45.13;5.53;;;20.30;34.50;;;;;;5133243;27;20049;-57
2022/04/20 08:47:01;;;;;;;11.73;3.67;;;20.30;34.00;;;;;;5115706;27;20366;-58
2022/04/20 08:49:27;;;;;;;4.60;2.92;;;20.30;33.20;;;;;;5149267;27;20051;-58
2022/04/20 08:54:37;;;;;;;3.88;2.45;;;20.20;34.40;;;;;;5134000;27;20079;-55
2022/04/20 08:57:15;;;;;;;14.02;2.75;;;20.20;34.10;;;;;;5134420;27;20015;-58
2022/04/20 08:59:47;;;;;;;6.25;2.60;;;20.40;34.10;;;;;;5132344;27;20022;-56
2022/04/20 09:02:12;;;;;;;;;;;20.70;33.60;;;;;;5134072;27;20015;-57
2022/04/20 09:04:39;;;;;;;3.83;2.50;;;20.60;33.00;;;;;;5133277;27;20358;-60
2022/04/20 09:07:12;;;;;;;23.48;4.32;;;20.70;32.80;;;;;;5132383;27;20019;-58
2022/04/20 09:09:38;;;;;;;18.33;3.67;;;20.90;32.90;;;;;;5132669;27;20019;-58
2022/04/20 09:12:15;;;;;;;10.68;3.38;;;20.80;32.10;;;;;;5150133;27;20458;-59
2022/04/20 09:14:43;;;;;;;16.55;3.67;;;20.60;31.70;;;;;;5135085;27;20015;-56
2022/04/20 09:17:12;;;;;;;10.05;3.47;;;20.50;32.30;;;;;;5135013;27;20007;-58
2022/04/20 09:19:42;;;;;;;6.75;3.20;;;20.40;32.70;;;;;;5135403;27;20042;-57
2022/04/20 09:22:22;;;;;;;8.32;3.20;;;20.50;32.60;;;;;;5134777;27;20116;-59
2022/04/20 09:24:59;;;;;;;7.15;2.70;;;20.60;32.80;;;;;;5135036;27;20517;-58
2022/04/20 09:27:26;;;;;;;6.15;3.20;;;20.70;33.00;;;;;;5134296;27;20061;-58
2022/04/20 09:29:56;;;;;;;6.80;3.50;;;20.60;32.30;;;;;;5134747;27;20047;-53
2022/04/20 09:32:42;;;;;;;9.52;3.47;;;20.40;32.60;;;;;;5135149;27;20023;-57
2022/04/20 09:35:10;;;;;;;8.70;2.75;;;20.40;32.60;;;;;;5132923;27;20017;-54
2022/04/20 09:37:36;;;;;;;8.77;2.58;;;20.60;32.50;;;;;;5134289;27;20139;-58
2022/04/20 09:40:06;;;;;;;10.02;3.67;;;20.70;32.70;;;;;;5134224;27;20019;-55
2022/04/20 09:42:34;;;;;;;6.70;2.65;;;20.90;32.70;;;;;;5133283;27;20130;-58
2022/04/20 09:45:12;;;;;;;9.18;2.70;;;21.10;32.70;;;;;;5114785;27;20015;-57
2022/04/20 09:50:24;;;;;;;10.15;2.75;;;21.10;32.10;;;;;;5132758;27;20023;-59
2022/04/20 09:52:52;;;;;;;6.35;3.10;;;20.90;31.80;;;;;;5131441;27;20079;-57
2022/04/20 09:55:31;;;;;;;6.40;2.88;;;20.90;31.60;;;;;;5131536;27;20026;-57
2022/04/20 09:58:13;;;;;;;17.65;3.60;;;21.00;31.70;;;;;;5132440;27;20106;-59
2022/04/20 10:00:40;;;;;;;7.78;2.65;;;21.10;31.60;;;;;;5132794;27;20448;-59
2022/04/20 10:03:07;;;;;;;10.02;2.80;;;21.20;31.60;;;;;;5132821;27;20434;-59
2022/04/20 10:05:33;;;;;;;10.35;2.60;;;21.30;31.40;;;;;;5148774;27;20095;-59
2022/04/20 10:07:59;;;;;;;8.35;2.10;;;21.40;31.40;;;;;;5133419;27;20019;-59
2022/04/20 10:10:30;;;;;;;12.43;2.25;;;21.40;31.30;;;;;;5133630;27;20055;-59
2022/04/20 10:12:56;;;;;;;7.38;2.05;;;21.50;31.20;;;;;;5132703;27;20047;-59
2022/04/20 10:18:09;;;;;;;10.88;1.75;;;21.60;31.20;;;;;;5134031;27;20115;-58
2022/04/20 10:20:35;;;;;;;6.18;1.70;;;21.60;31.20;;;;;;5150814;27;20465;-59
2022/04/20 10:23:02;;;;;;;6.32;1.70;;;21.70;31.20;;;;;;5134572;28;20039;-59
2022/04/20 10:25:29;;;;;;;5.68;1.77;;;21.70;31.30;;;;;;5135978;27;20011;-59
2022/04/20 10:28:19;;;;;;;7.63;1.98;;;21.70;31.30;;;;;;5133688;28;20011;-58
2022/04/20 10:30:58;;;;;;;3.47;1.50;;;21.70;31.20;;;;;;5133899;28;20017;-60
2022/04/20 10:33:25;;;;;;;6.07;1.70;;;21.80;31.30;;;;;;5132431;28;20052;-60
2022/04/20 10:36:09;;;;;;;5.32;1.80;;;21.70;31.20;;;;;;5132429;28;20007;-60
2022/04/20 10:38:34;;;;;;;5.07;1.67;;;21.70;31.30;;;;;;5134082;27;20024;-60
2022/04/20 10:41:10;;;;;;;10.60;1.45;;;21.70;31.40;;;;;;5132547;28;20022;-60
2022/04/20 10:43:45;;;;;;;9.25;1.77;;;21.80;31.40;;;;;;5134135;27;20020;-60
2022/04/20 10:46:11;;;;;;;2.65;1.77;;;21.80;31.50;;;;;;5133892;27;20016;-60
2022/04/20 10:49:00;;;;;;;5.78;1.80;;;21.70;31.50;;;;;;5134615;27;20027;-60
2022/04/20 10:51:40;;;;;;;3.22;1.63;;;21.70;31.40;;;;;;5134305;27;20023;-60
2022/04/20 10:54:20;;;;;;;2.83;1.40;;;21.70;31.60;;;;;;5136156;27;20007;-60
2022/04/20 10:57:01;;;;;;;7.55;1.52;;;21.80;31.50;;;;;;5137676;27;20068;-59
2022/04/20 10:59:30;;;;;;;;;;;21.70;31.60;;;;;;5137966;27;20037;-59
2022/04/20 11:02:02;;;;;;;6.53;1.67;;;21.80;31.70;;;;;;5137234;27;19911;-59
2022/04/20 11:04:50;;;;;;;4.10;1.45;;;21.80;31.90;;;;;;5137692;27;20022;-60
2022/04/20 11:07:24;;;;;;;5.65;1.20;;;21.80;31.70;;;;;;5137445;27;20015;-60
2022/04/20 11:09:56;;;;;;;4.40;1.20;;;21.70;31.70;;;;;;5137212;27;20461;-60
2022/04/20 11:18:43;;;;;;;3.58;1.20;;;21.70;31.80;;;;;;5137093;27;20050;-59
2022/04/20 11:21:10;;;;;;;4.97;1.10;;;21.70;32.20;;;;;;5135868;27;20056;-59
2022/04/20 11:24:01;;;;;;;4.82;1.23;;;21.70;31.80;;;;;;5136937;27;20019;-59
2022/04/20 11:26:34;;;;;;;2.80;1.15;;;21.70;32.10;;;;;;5137460;27;20090;-59
2022/04/20 11:29:09;;;;;;;2.45;1.40;;;21.70;32.00;;;;;;5136967;27;20022;-59
2022/04/20 11:31:42;;;;;;;1.63;0.98;;;21.60;32.20;;;;;;5135580;27;20019;-59
2022/04/20 11:34:08;;;;;;;6.57;1.60;;;21.70;32.30;;;;;;5136714;27;20007;-59
2022/04/20 11:36:36;;;;;;;2.78;1.20;;;21.70;32.40;;;;;;5137184;27;20027;-59
2022/04/20 11:39:02;;;;;;;2.47;1.10;;;21.70;32.00;;;;;;5135568;27;20019;-59
2022/04/20 11:41:28;;;;;;;2.97;1.35;;;21.70;32.20;;;;;;5136916;27;20030;-59
2022/04/20 11:43:54;;;;;;;2.08;0.98;;;21.70;32.10;;;;;;5136659;27;20030;-59
2022/04/20 11:46:20;;;;;;;3.42;1.02;;;21.70;32.30;;;;;;5118442;27;20013;-59
2022/04/20 11:48:53;;;;;;;3.83;1.10;;;21.70;32.10;;;;;;5136989;27;20008;-58
2022/04/20 11:51:27;;;;;;;5.82;1.20;;;21.70;32.30;;;;;;5136691;27;20069;-60
2022/04/20 11:53:53;;;;;;;2.47;1.10;;;21.70;32.30;;;;;;5136916;27;20022;-59
2022/04/20 11:56:39;;;;;;;3.58;1.00;;;21.70;32.20;;;;;;5135660;27;20007;-59
2022/04/20 11:59:08;;;;;;;4.07;1.25;;;21.80;32.30;;;;;;5137073;27;20026;-59
2022/04/20 12:01:36;;;;;;;1.50;0.82;;;21.80;32.40;;;;;;5139514;27;20029;-59
2022/04/20 12:04:15;;;;;;;4.22;1.08;;;21.70;32.10;;;;;;5137794;27;20020;-59
2022/04/20 12:07:05;;;;;;;2.30;1.30;;;21.80;32.30;;;;;;5137649;27;19999;-59
2022/04/20 12:09:36;;;;;;;3.13;1.17;;;21.70;32.20;;;;;;5152733;27;20019;-60
2022/04/20 12:12:06;;;;;;;6.80;1.20;;;21.70;32.30;;;;;;5136451;27;20053;-59
2022/04/20 12:14:37;;;;;;;1.50;1.10;;;21.60;32.10;;;;;;5136211;27;20023;-59
2022/04/20 12:17:14;;;;;;;2.22;1.30;;;21.70;32.50;;;;;;5136056;27;20090;-60
2022/04/20 12:19:41;;;;;;;5.40;1.02;;;21.70;32.30;;;;;;5136637;27;20041;-59
2022/04/20 12:22:15;;;;;;;2.50;1.27;;;21.70;32.50;;;;;;5135654;27;20039;-59
2022/04/20 12:24:42;;;;;;;3.95;1.00;;;21.70;32.40;;;;;;5136059;27;20033;-60
2022/04/20 12:27:21;;;;;;;2.92;1.05;;;21.70;32.30;;;;;;5135728;27;20023;-59
2022/04/20 12:29:54;;;;;;;2.40;1.00;;;21.60;32.20;;;;;;5135577;27;20017;-59
2022/04/20 12:32:24;;;;;;;3.15;1.10;;;21.60;32.50;;;;;;5135586;27;20018;-62
2022/04/20 12:35:01;;;;;;;2.83;0.95;;;21.60;32.20;;;;;;5135812;27;20019;-60
2022/04/20 12:37:29;;;;;;;2.75;1.08;;;21.70;32.50;;;;;;5135725;27;20072;-60
2022/04/20 12:39:55;;;;;;;2.38;1.13;;;21.70;32.60;;;;;;5136141;27;20094;-60
2022/04/20 12:42:21;;;;;;;4.38;1.17;;;21.70;32.60;;;;;;5135730;27;20020;-60
2022/04/20 12:44:51;;;;;;;2.97;1.15;;;21.70;32.50;;;;;;5135413;27;20039;-60
2022/04/20 12:47:17;;;;;;;5.20;1.27;;;21.70;32.40;;;;;;5136368;27;20007;-60
2022/04/20 12:49:53;;;;;;;2.20;1.15;;;21.70;32.40;;;;;;5136935;27;20023;-60
2022/04/20 12:52:20;;;;;;;1.63;0.90;;;21.70;32.50;;;;;;5137175;27;20018;-60
2022/04/20 12:55:08;;;;;;;2.30;1.13;;;21.70;32.60;;;;;;5136943;27;20015;-60
2022/04/20 13:03:07;;;;;;;1.77;1.00;;;21.80;32.80;;;;;;5135206;27;20501;-60
2022/04/20 13:05:38;;;;;;;2.83;1.05;;;21.70;32.40;;;;;;5135047;27;20099;-60
2022/04/20 13:08:04;;;;;;;2.37;1.23;;;21.70;32.60;;;;;;5133874;27;20019;-61
2022/04/20 13:10:31;;;;;;;1.50;1.00;;;21.80;32.40;;;;;;5134156;27;20088;-61
2022/04/20 13:12:57;;;;;;;7.47;1.40;;;21.80;32.40;;;;;;5135439;27;20039;-60
2022/04/20 13:15:24;;;;;;;9.95;1.40;;;21.80;32.50;;;;;;5133433;27;20050;-60
2022/04/20 13:17:51;;;;;;;1.65;1.20;;;21.70;32.00;;;;;;5134901;27;20022;-60
2022/04/20 13:20:17;;;;;;;3.42;1.25;;;21.80;32.40;;;;;;5135262;27;20022;-60
2022/04/20 13:22:44;;;;;;;2.33;1.10;;;21.80;32.70;;;;;;5134649;27;20035;-60
2022/04/20 13:27:54;;;;;;;3.53;1.20;;;21.80;32.40;;;;;;5135128;27;20038;-60
2022/04/20 13:30:24;;;;;;;1.17;0.82;;;21.80;32.40;;;;;;5116602;27;20381;-60
2022/04/20 13:32:55;;;;;;;1.63;1.10;;;21.80;32.60;;;;;;5133538;27;20030;-61
2022/04/20 13:35:20;;;;;;;4.20;1.38;;;21.80;32.50;;;;;;5134677;27;20050;-60